<?xml version="1.0" encoding="UTF-8" standalone="no" ?>
<gpx xmlns="http://www.topografix.com/GPX/1/1" xmlns:xsi="http://www.w3.org/2001/XMLSchema-instance" xsi:schemaLocation="http://www.topografix.com/GPX/1/1 http://www.topografix.com/GPX/1/1/gpx.xsd" version="1.1" creator="VisuGPX - https://www.visugpx.com">
  <metadata>
    <name>J3 - La Romieu - Sainte Mere</name>
    <desc><![CDATA[Circuit Gers]]></desc>
  </metadata>
  <trk>
    <name><![CDATA[J3 - La Romieu - Saint Mere]]></name>
    <trkseg>
      <trkpt lat="43.98442" lon="0.49861">
        <ele>175</ele>
        <time>2014-03-12T22:35:18+01:00</time>
      </trkpt>
      <trkpt lat="43.98622" lon="0.50042">
        <ele>176</ele>
        <time>2014-03-12T22:35:23+01:00</time>
      </trkpt>
      <trkpt lat="43.99128" lon="0.50076">
        <ele>151</ele>
        <time>2014-03-12T22:35:28+01:00</time>
      </trkpt>
      <trkpt lat="43.99542" lon="0.50402">
        <ele>148</ele>
        <time>2014-03-12T22:35:33+01:00</time>
      </trkpt>
      <trkpt lat="43.99708" lon="0.50479">
        <ele>151</ele>
        <time>2014-03-12T22:35:38+01:00</time>
      </trkpt>
      <trkpt lat="44.00486" lon="0.50642">
        <ele>130</ele>
        <time>2014-03-12T22:35:43+01:00</time>
      </trkpt>
      <trkpt lat="44.00381" lon="0.50977">
        <ele>137</ele>
        <time>2014-03-12T22:35:48+01:00</time>
      </trkpt>
      <trkpt lat="44.004" lon="0.51449">
        <ele>146</ele>
        <time>2014-03-12T22:35:53+01:00</time>
      </trkpt>
      <trkpt lat="44.00597" lon="0.51707">
        <ele>170</ele>
        <time>2014-03-12T22:35:58+01:00</time>
      </trkpt>
      <trkpt lat="44.00585" lon="0.52084">
        <ele>185</ele>
        <time>2014-03-12T22:36:03+01:00</time>
      </trkpt>
      <trkpt lat="44.0032" lon="0.52934">
        <ele>201</ele>
        <time>2014-03-12T22:36:08+01:00</time>
      </trkpt>
      <trkpt lat="44.00042" lon="0.529">
        <ele>197</ele>
        <time>2014-03-12T22:36:13+01:00</time>
      </trkpt>
      <trkpt lat="43.99764" lon="0.53681">
        <ele>191</ele>
        <time>2014-03-12T22:36:18+01:00</time>
      </trkpt>
      <trkpt lat="43.99671" lon="0.53698">
        <ele>188</ele>
        <time>2014-03-12T22:36:23+01:00</time>
      </trkpt>
      <trkpt lat="43.99548" lon="0.54007">
        <ele>184</ele>
        <time>2014-03-12T22:36:28+01:00</time>
      </trkpt>
      <trkpt lat="43.99622" lon="0.54127">
        <ele>163</ele>
        <time>2014-03-12T22:36:33+01:00</time>
      </trkpt>
      <trkpt lat="43.99505" lon="0.54196">
        <ele>173</ele>
        <time>2014-03-12T22:36:38+01:00</time>
      </trkpt>
      <trkpt lat="43.99418" lon="0.54256">
        <ele>159</ele>
        <time>2014-03-12T22:36:43+01:00</time>
      </trkpt>
      <trkpt lat="43.99369" lon="0.54565">
        <ele>137</ele>
        <time>2014-03-12T22:36:48+01:00</time>
      </trkpt>
      <trkpt lat="43.99511" lon="0.54659">
        <ele>123</ele>
        <time>2014-03-12T22:36:53+01:00</time>
      </trkpt>
      <trkpt lat="43.99585" lon="0.54599">
        <ele>122</ele>
        <time>2014-03-12T22:36:58+01:00</time>
      </trkpt>
      <trkpt lat="43.99739" lon="0.54805">
        <ele>137</ele>
        <time>2014-03-12T22:37:03+01:00</time>
      </trkpt>
      <trkpt lat="43.99776" lon="0.55003">
        <ele>158</ele>
        <time>2014-03-12T22:37:08+01:00</time>
      </trkpt>
      <trkpt lat="43.99887" lon="0.55114">
        <ele>179</ele>
        <time>2014-03-12T22:37:13+01:00</time>
      </trkpt>
      <trkpt lat="44.00029" lon="0.5502">
        <ele>189</ele>
        <time>2014-03-12T22:37:18+01:00</time>
      </trkpt>
      <trkpt lat="44.00338" lon="0.56385">
        <ele>176</ele>
        <time>2014-03-12T22:37:23+01:00</time>
      </trkpt>
      <trkpt lat="44.00178" lon="0.56651">
        <ele>142</ele>
        <time>2014-03-12T22:37:28+01:00</time>
      </trkpt>
      <trkpt lat="44.00097" lon="0.56719">
        <ele>131</ele>
        <time>2014-03-12T22:37:33+01:00</time>
      </trkpt>
      <trkpt lat="44.00023" lon="0.56942">
        <ele>119</ele>
        <time>2014-03-12T22:37:38+01:00</time>
      </trkpt>
      <trkpt lat="43.99844" lon="0.57114">
        <ele>100</ele>
        <time>2014-03-12T22:37:43+01:00</time>
      </trkpt>
      <trkpt lat="43.99758" lon="0.57406">
        <ele>89</ele>
        <time>2014-03-12T22:37:48+01:00</time>
      </trkpt>
      <trkpt lat="44.00066" lon="0.57578">
        <ele>85</ele>
        <time>2014-03-12T22:37:53+01:00</time>
      </trkpt>
      <trkpt lat="44.00202" lon="0.57689">
        <ele>86</ele>
        <time>2014-03-12T22:37:58+01:00</time>
      </trkpt>
      <trkpt lat="44.00449" lon="0.58135">
        <ele>101</ele>
        <time>2014-03-12T22:38:03+01:00</time>
      </trkpt>
      <trkpt lat="44.00634" lon="0.58247">
        <ele>91</ele>
        <time>2014-03-12T22:38:08+01:00</time>
      </trkpt>
      <trkpt lat="44.00258" lon="0.59226">
        <ele>70</ele>
        <time>2014-03-12T22:38:13+01:00</time>
      </trkpt>
      <trkpt lat="44.00017" lon="0.59268">
        <ele>87</ele>
        <time>2014-03-12T22:38:18+01:00</time>
      </trkpt>
      <trkpt lat="44.00005" lon="0.59329">
        <ele>93</ele>
        <time>2014-03-12T22:38:23+01:00</time>
      </trkpt>
      <trkpt lat="44.0006" lon="0.59586">
        <ele>119</ele>
        <time>2014-03-12T22:38:28+01:00</time>
      </trkpt>
      <trkpt lat="44.00011" lon="0.59809">
        <ele>138</ele>
        <time>2014-03-12T22:38:33+01:00</time>
      </trkpt>
      <trkpt lat="43.99924" lon="0.59981">
        <ele>154</ele>
        <time>2014-03-12T22:38:38+01:00</time>
      </trkpt>
      <trkpt lat="43.9985" lon="0.60092">
        <ele>166</ele>
        <time>2014-03-12T22:38:43+01:00</time>
      </trkpt>
      <trkpt lat="43.99708" lon="0.60195">
        <ele>183</ele>
        <time>2014-03-12T22:38:48+01:00</time>
      </trkpt>
      <trkpt lat="43.99622" lon="0.60685">
        <ele>181</ele>
        <time>2014-03-12T22:38:53+01:00</time>
      </trkpt>
      <trkpt lat="43.9927" lon="0.6132">
        <ele>183</ele>
        <time>2014-03-12T22:38:58+01:00</time>
      </trkpt>
      <trkpt lat="43.99505" lon="0.615">
        <ele>153</ele>
        <time>2014-03-12T22:39:03+01:00</time>
      </trkpt>
      <trkpt lat="43.99677" lon="0.61646">
        <ele>127</ele>
        <time>2014-03-12T22:39:08+01:00</time>
      </trkpt>
      <trkpt lat="44.00023" lon="0.61629">
        <ele>124</ele>
        <time>2014-03-12T22:39:13+01:00</time>
      </trkpt>
      <trkpt lat="44.00029" lon="0.62024">
        <ele>109</ele>
        <time>2014-03-12T22:39:18+01:00</time>
      </trkpt>
      <trkpt lat="44.00048" lon="0.62273">
        <ele>105</ele>
        <time>2014-03-12T22:39:23+01:00</time>
      </trkpt>
      <trkpt lat="44.00097" lon="0.62444">
        <ele>103</ele>
        <time>2014-03-12T22:39:28+01:00</time>
      </trkpt>
      <trkpt lat="44.00289" lon="0.62281">
        <ele>100</ele>
        <time>2014-03-12T22:39:33+01:00</time>
      </trkpt>
      <trkpt lat="44.00604" lon="0.62315">
        <ele>88</ele>
        <time>2014-03-12T22:39:38+01:00</time>
      </trkpt>
      <trkpt lat="44.00776" lon="0.62367">
        <ele>83</ele>
        <time>2014-03-12T22:39:43+01:00</time>
      </trkpt>
      <trkpt lat="44.00875" lon="0.6241">
        <ele>91</ele>
        <time>2014-03-12T22:39:48+01:00</time>
      </trkpt>
      <trkpt lat="44.00931" lon="0.62539">
        <ele>89</ele>
        <time>2014-03-12T22:39:53+01:00</time>
      </trkpt>
      <trkpt lat="44.00931" lon="0.6265">
        <ele>91</ele>
        <time>2014-03-12T22:39:58+01:00</time>
      </trkpt>
      <trkpt lat="44.01048" lon="0.62727">
        <ele>93</ele>
        <time>2014-03-12T22:40:03+01:00</time>
      </trkpt>
      <trkpt lat="44.01073" lon="0.63157">
        <ele>95</ele>
        <time>2014-03-12T22:40:08+01:00</time>
      </trkpt>
      <trkpt lat="44.00986" lon="0.6338">
        <ele>97</ele>
        <time>2014-03-12T22:40:13+01:00</time>
      </trkpt>
      <trkpt lat="44.00949" lon="0.63491">
        <ele>98</ele>
        <time>2014-03-12T22:40:18+01:00</time>
      </trkpt>
      <trkpt lat="44.00968" lon="0.63878">
        <ele>103</ele>
        <time>2014-03-12T22:40:23+01:00</time>
      </trkpt>
      <trkpt lat="44.00832" lon="0.63869">
        <ele>106</ele>
        <time>2014-03-12T22:40:28+01:00</time>
      </trkpt>
      <trkpt lat="44.00517" lon="0.64298">
        <ele>123</ele>
        <time>2014-03-12T22:40:33+01:00</time>
      </trkpt>
      <trkpt lat="44.00517" lon="0.64564">
        <ele>114</ele>
        <time>2014-03-12T22:40:38+01:00</time>
      </trkpt>
      <trkpt lat="44.00529" lon="0.64908">
        <ele>121</ele>
        <time>2014-03-12T22:40:43+01:00</time>
      </trkpt>
      <trkpt lat="44.00671" lon="0.6495">
        <ele>134</ele>
        <time>2014-03-12T22:40:48+01:00</time>
      </trkpt>
      <trkpt lat="44.00746" lon="0.65268">
        <ele>137</ele>
        <time>2014-03-12T22:40:53+01:00</time>
      </trkpt>
      <trkpt lat="44.00838" lon="0.65251">
        <ele>134</ele>
        <time>2014-03-12T22:40:58+01:00</time>
      </trkpt>
      <trkpt lat="44.0077" lon="0.65517">
        <ele>131</ele>
        <time>2014-03-12T22:41:03+01:00</time>
      </trkpt>
      <trkpt lat="44.00579" lon="0.65525">
        <ele>117</ele>
        <time>2014-03-12T22:41:08+01:00</time>
      </trkpt>
      <trkpt lat="44.00431" lon="0.65852">
        <ele>138</ele>
        <time>2014-03-12T22:41:13+01:00</time>
      </trkpt>
      <trkpt lat="44.00227" lon="0.66264">
        <ele>170</ele>
        <time>2014-03-12T22:41:18+01:00</time>
      </trkpt>
      <trkpt lat="44.00147" lon="0.66384">
        <ele>172</ele>
        <time>2014-03-12T22:41:23+01:00</time>
      </trkpt>
      <trkpt lat="44.00116" lon="0.66684">
        <ele>174</ele>
        <time>2014-03-12T22:41:28+01:00</time>
      </trkpt>
      <trkpt lat="44.00054" lon="0.66882">
        <ele>171</ele>
        <time>2014-03-12T22:41:33+01:00</time>
      </trkpt>
      <trkpt lat="44.00036" lon="0.6695">
        <ele>170</ele>
        <time>2014-03-12T22:41:38+01:00</time>
      </trkpt>
      <trkpt lat="44.00289" lon="0.66942">
        <ele>173</ele>
        <time>2014-03-12T22:41:43+01:00</time>
      </trkpt>
      <trkpt lat="44.00542" lon="0.6701">
        <ele>179</ele>
        <time>2014-03-12T22:41:48+01:00</time>
      </trkpt>
    </trkseg>
  </trk>
</gpx>